Aviation Digital Data Service (ADDS)

Output produced by METARs form (0826 UTC 17 November 2018)
found at http://www.aviationweather.gov/metar/data/
 
EVLA 170820Z AUTO VRB02KT 9999 OVC019/// 04/03 Q1041
TAF EVLA 170502Z 1706/1806 17007KT 9999 OVC014 
     TEMPO 1706/1709 BKN007 
     BECMG 1707/1709 27007KT BKN020 
     BECMG 1718/1720 30007KT BKN010 
     TEMPO 1720/1724 3000 BR BKN005 
     BECMG 1800/1802 36010KT 
     TEMPO 1802/1806 35018G30KT
       
EVRA 170820Z 22007KT 5000 -DZ BR SCT004 OVC014 02/02 Q1041 R18/190095 NOSIG
TAF EVRA 170821Z 1709/1809 24007KT 7000 BKN005 OVC015 
     BECMG 1710/1712 BKN010 OVC015 
     TEMPO 1718/1805 BKN007 
     BECMG 1721/1723 32010KT 
     TEMPO 1801/1809 33015G28KT 
     BECMG 1806/1809 BKN020
       
EVVA 170820Z AUTO 26010KT 9999 OVC021 08/05 Q1040